createdAt,value
2022-11-16T00:01:57.092Z,13.20
2022-11-16T00:04:24.943Z,13.21
2022-11-16T00:06:52.716Z,13.21
2022-11-16T00:09:28.649Z,13.20
2022-11-16T00:11:58.241Z,13.20
2022-11-16T00:14:30.400Z,13.20
2022-11-16T00:16:58.973Z,13.20
2022-11-16T00:19:27.573Z,13.21
2022-11-16T00:21:55.608Z,13.21
2022-11-16T00:24:24.599Z,13.20
2022-11-16T00:26:55.383Z,13.22
2022-11-16T00:29:25.152Z,13.22
2022-11-16T00:31:55.400Z,13.23
2022-11-16T00:34:23.748Z,13.22
2022-11-16T00:36:51.666Z,13.22
2022-11-16T00:39:20.845Z,13.23
2022-11-16T00:41:49.423Z,13.23
2022-11-16T00:44:17.925Z,13.22
2022-11-16T00:46:45.650Z,13.22
2022-11-16T00:49:14.717Z,13.22
2022-11-16T00:51:42.384Z,13.22
2022-11-16T00:54:10.312Z,13.22
2022-11-16T00:56:38.467Z,13.23
2022-11-16T00:59:06.212Z,13.22
2022-11-16T01:01:34.389Z,13.23
2022-11-16T01:04:02.352Z,13.23
2022-11-16T01:06:31.446Z,13.24
2022-11-16T01:08:59.121Z,13.26
2022-11-16T01:11:49.828Z,13.25
2022-11-16T01:14:17.803Z,13.23
2022-11-16T01:16:45.685Z,13.25
2022-11-16T01:19:13.398Z,13.25
2022-11-16T01:21:42.532Z,13.25
2022-11-16T01:24:10.263Z,13.22
2022-11-16T01:26:37.967Z,13.22
2022-11-16T01:29:05.634Z,13.20
2022-11-16T01:31:33.409Z,13.22
2022-11-16T01:34:01.163Z,13.24
2022-11-16T01:36:28.958Z,13.22
2022-11-16T01:38:58.257Z,13.24
2022-11-16T01:41:27.302Z,13.25
2022-11-16T01:43:57.750Z,13.25
2022-11-16T01:46:26.690Z,13.25
2022-11-16T01:49:12.976Z,13.25
2022-11-16T01:51:43.060Z,13.23
2022-11-16T01:54:14.858Z,13.20
2022-11-16T01:56:45.324Z,13.22
2022-11-16T01:59:14.285Z,13.21
2022-11-16T02:01:42.163Z,13.22
2022-11-16T02:04:11.534Z,13.19
2022-11-16T02:06:59.961Z,13.16
2022-11-16T02:09:55.155Z,13.15
2022-11-16T02:12:48.819Z,13.11
2022-11-16T02:15:26.026Z,13.09
2022-11-16T02:18:05.774Z,13.06
2022-11-16T02:20:55.853Z,13.01
2022-11-16T02:23:52.290Z,13.00
2022-11-16T02:26:37.394Z,12.97
2022-11-16T02:29:21.723Z,12.98
2022-11-16T02:31:55.452Z,13.01
2022-11-16T02:34:27.612Z,12.98
2022-11-16T02:36:58.224Z,12.98
2022-11-16T02:39:29.472Z,12.98
2022-11-16T02:41:58.732Z,12.98
2022-11-16T02:44:31.999Z,12.98
2022-11-16T02:47:03.069Z,12.99
2022-11-16T02:49:35.071Z,12.98
2022-11-16T02:52:03.684Z,13.01
2022-11-16T02:54:31.408Z,13.03
2022-11-16T02:57:28.360Z,13.01
2022-11-16T02:59:59.957Z,13.00
2022-11-16T03:02:35.086Z,13.01
2022-11-16T03:05:06.314Z,12.99
2022-11-16T03:07:37.923Z,12.99
2022-11-16T03:10:06.337Z,13.02
2022-11-16T03:12:35.866Z,13.02
2022-11-16T03:15:08.156Z,13.02
2022-11-16T03:17:42.651Z,13.02
2022-11-16T03:20:14.668Z,13.04
2022-11-16T03:22:45.222Z,13.01
2022-11-16T03:25:15.047Z,13.02
2022-11-16T03:27:49.440Z,13.02
2022-11-16T03:30:23.895Z,13.01
2022-11-16T03:32:57.545Z,13.01
2022-11-16T03:35:30.161Z,13.03
2022-11-16T03:38:01.011Z,13.02
2022-11-16T03:40:31.421Z,13.01
2022-11-16T03:43:02.684Z,13.01
2022-11-16T03:45:32.771Z,13.02
2022-11-16T03:48:01.692Z,12.99
2022-11-16T03:50:29.763Z,12.98
2022-11-16T03:52:57.462Z,12.97
2022-11-16T03:55:25.144Z,12.97
2022-11-16T03:57:52.867Z,13.00
2022-11-16T04:00:20.790Z,13.00
2022-11-16T04:02:49.890Z,13.00
2022-11-16T04:05:35.430Z,12.97
2022-11-16T04:08:20.740Z,12.97
2022-11-16T04:11:06.317Z,12.95
2022-11-16T04:13:53.137Z,12.95
2022-11-16T04:16:38.717Z,12.96
2022-11-16T04:19:26.532Z,12.95
2022-11-16T04:22:15.963Z,12.96
2022-11-16T04:24:46.753Z,12.94
2022-11-16T04:27:33.880Z,12.93
2022-11-16T04:30:03.591Z,12.93
2022-11-16T04:32:48.695Z,12.93
2022-11-16T04:35:43.785Z,12.92
2022-11-16T04:38:11.560Z,12.93
2022-11-16T04:40:39.353Z,12.93
2022-11-16T04:43:06.682Z,12.92
2022-11-16T04:45:52.432Z,12.93
2022-11-16T04:48:21.314Z,12.93
2022-11-16T04:50:50.360Z,12.88
2022-11-16T04:53:18.085Z,12.87
2022-11-16T04:55:45.803Z,12.93
2022-11-16T04:58:13.622Z,12.96
2022-11-16T05:00:41.354Z,12.98
2022-11-16T05:03:09.114Z,12.99
2022-11-16T05:05:37.725Z,13.00
2022-11-16T05:08:08.732Z,13.01
2022-11-16T05:10:37.012Z,13.01
2022-11-16T05:13:04.977Z,13.02
2022-11-16T05:15:32.736Z,13.01
2022-11-16T05:18:00.557Z,13.01
2022-11-16T05:20:45.626Z,13.00
2022-11-16T05:23:28.573Z,12.96
2022-11-16T05:25:56.306Z,12.97
2022-11-16T05:28:24.056Z,12.98
2022-11-16T05:30:51.733Z,13.00
2022-11-16T05:33:19.503Z,13.02
2022-11-16T05:35:47.281Z,13.02
2022-11-16T05:38:16.370Z,13.04
2022-11-16T05:40:44.050Z,13.02
2022-11-16T05:43:12.013Z,13.07
2022-11-16T05:45:39.748Z,13.05
2022-11-16T05:48:07.446Z,13.01
2022-11-16T05:50:39.836Z,13.01
2022-11-16T05:53:10.165Z,13.06
2022-11-16T05:55:39.288Z,13.04
2022-11-16T05:58:06.974Z,13.03
2022-11-16T06:00:34.651Z,12.98
2022-11-16T06:03:02.444Z,12.93
2022-11-16T06:05:30.183Z,12.89
2022-11-16T06:07:57.885Z,12.91
2022-11-16T06:10:25.617Z,12.87
2022-11-16T06:12:54.817Z,12.88
2022-11-16T06:15:22.531Z,12.90
2022-11-16T06:17:50.201Z,12.87
2022-11-16T06:20:18.402Z,12.84
2022-11-16T06:22:46.416Z,12.83
2022-11-16T06:25:14.151Z,12.84
2022-11-16T06:27:41.846Z,12.84
2022-11-16T06:30:11.526Z,12.85
2022-11-16T06:32:39.996Z,12.86
2022-11-16T06:35:08.479Z,12.84
2022-11-16T06:37:36.146Z,12.80
2022-11-16T06:40:04.290Z,12.78
2022-11-16T06:42:31.972Z,12.77
2022-11-16T06:44:59.662Z,12.78
2022-11-16T06:47:28.773Z,12.77
2022-11-16T06:49:56.477Z,12.76
2022-11-16T06:52:24.180Z,12.75
2022-11-16T06:54:51.840Z,12.76
2022-11-16T06:57:19.563Z,12.78
2022-11-16T06:59:47.229Z,12.82
2022-11-16T07:02:15.023Z,12.84
2022-11-16T07:04:44.398Z,12.88
2022-11-16T07:07:12.178Z,12.87
2022-11-16T07:09:39.892Z,12.86
2022-11-16T07:12:08.061Z,12.88
2022-11-16T07:14:38.267Z,12.83
2022-11-16T07:17:09.540Z,12.83
2022-11-16T07:19:37.746Z,12.81
2022-11-16T07:22:07.150Z,12.80
2022-11-16T07:24:34.860Z,12.78
2022-11-16T07:27:02.641Z,12.79
2022-11-16T07:29:31.272Z,12.79
2022-11-16T07:31:58.976Z,12.73
2022-11-16T07:34:27.668Z,12.71
2022-11-16T07:36:55.350Z,12.68
2022-11-16T07:39:24.409Z,12.67
2022-11-16T07:41:53.567Z,12.63
2022-11-16T07:44:21.353Z,12.60
2022-11-16T07:46:49.167Z,12.58
2022-11-16T07:49:18.896Z,12.60
2022-11-16T07:51:47.402Z,12.62
2022-11-16T07:54:15.966Z,12.62
2022-11-16T07:56:45.129Z,12.62
2022-11-16T07:59:12.881Z,12.59
2022-11-16T08:01:40.630Z,12.53
2022-11-16T08:04:08.458Z,12.58
2022-11-16T08:06:36.146Z,12.51
2022-11-16T08:09:04.023Z,12.48
2022-11-16T08:11:31.742Z,12.41
2022-11-16T08:14:00.829Z,12.36
2022-11-16T08:16:28.681Z,12.32
2022-11-16T08:18:56.380Z,12.32
2022-11-16T08:21:24.093Z,12.33
2022-11-16T08:23:57.893Z,12.33
2022-11-16T08:26:26.329Z,12.33
2022-11-16T08:28:56.393Z,12.33
2022-11-16T08:31:27.388Z,12.36
2022-11-16T08:33:56.448Z,12.36
2022-11-16T08:36:24.286Z,12.40
2022-11-16T08:38:53.171Z,12.41
2022-11-16T08:41:21.509Z,12.43
2022-11-16T08:43:50.645Z,12.45
2022-11-16T08:46:18.643Z,12.53
2022-11-16T08:48:49.633Z,12.53
2022-11-16T08:51:20.154Z,12.55
2022-11-16T08:53:49.358Z,12.58
2022-11-16T08:56:18.760Z,12.63
2022-11-16T08:58:47.682Z,12.64
2022-11-16T09:01:17.724Z,12.67
2022-11-16T09:03:46.928Z,12.67
2022-11-16T09:06:15.805Z,12.67
2022-11-16T09:08:45.230Z,12.67
2022-11-16T09:11:16.832Z,12.62
2022-11-16T09:13:44.648Z,12.59
2022-11-16T09:16:15.776Z,12.60
2022-11-16T09:18:44.048Z,12.59
2022-11-16T09:21:13.425Z,12.57
2022-11-16T09:23:41.149Z,12.58
2022-11-16T09:26:08.906Z,12.50
2022-11-16T09:28:37.042Z,12.57
2022-11-16T09:31:06.083Z,12.56
2022-11-16T09:33:35.167Z,12.58
2022-11-16T09:36:06.854Z,12.62
2022-11-16T09:38:55.793Z,12.67
2022-11-16T09:41:49.125Z,12.72
2022-11-16T09:44:38.713Z,12.77
2022-11-16T09:47:12.230Z,12.91
2022-11-16T09:49:44.595Z,13.01
2022-11-16T09:52:25.071Z,13.12
2022-11-16T09:54:55.933Z,13.16
2022-11-16T09:57:30.371Z,13.14
2022-11-16T10:00:01.985Z,13.11
2022-11-16T10:02:35.520Z,13.11
2022-11-16T10:05:10.613Z,13.15
2022-11-16T10:07:43.062Z,13.13
2022-11-16T10:10:14.839Z,13.11
2022-11-16T10:12:49.803Z,13.09
2022-11-16T10:15:41.430Z,13.08
2022-11-16T10:18:20.950Z,13.08
2022-11-16T10:21:11.335Z,13.16
2022-11-16T10:23:51.478Z,13.28
2022-11-16T10:26:28.338Z,13.37
2022-11-16T10:29:15.343Z,13.42
2022-11-16T10:32:03.296Z,13.45
2022-11-16T10:34:39.641Z,13.52
2022-11-16T10:37:08.794Z,13.62
2022-11-16T10:39:40.894Z,13.70
2022-11-16T10:42:17.490Z,13.79
2022-11-16T10:44:48.566Z,13.86
2022-11-16T10:47:21.862Z,13.94
2022-11-16T10:49:57.026Z,13.94
2022-11-16T10:52:25.174Z,14.02
2022-11-16T10:54:53.392Z,14.16
2022-11-16T10:57:24.627Z,14.28
2022-11-16T10:59:55.749Z,14.36
2022-11-16T11:02:30.998Z,14.39
2022-11-16T11:05:17.785Z,14.42
2022-11-16T11:07:54.089Z,14.41
2022-11-16T11:10:31.463Z,14.40
2022-11-16T11:13:21.818Z,14.40
2022-11-16T11:15:51.307Z,14.47
2022-11-16T11:18:26.065Z,14.53
2022-11-16T11:21:07.615Z,14.60
2022-11-16T11:24:10.583Z,14.64
2022-11-16T11:26:43.202Z,14.60
2022-11-16T11:29:24.746Z,14.60
2022-11-16T11:31:55.130Z,14.61
2022-11-16T11:34:25.765Z,14.64
2022-11-16T11:36:56.998Z,14.67
2022-11-16T11:39:31.716Z,14.71
2022-11-16T11:42:06.210Z,14.68
2022-11-16T11:44:44.584Z,14.59
2022-11-16T11:47:56.329Z,14.53
2022-11-16T11:50:20.079Z,14.55
2022-11-16T11:53:03.376Z,14.62
2022-11-16T11:55:31.142Z,14.69
2022-11-16T11:58:01.640Z,14.77
2022-11-16T12:00:40.619Z,14.78
2022-11-16T12:03:32.507Z,14.80
2022-11-16T12:06:23.848Z,14.78
2022-11-16T12:09:06.969Z,14.82
2022-11-16T12:11:49.814Z,14.84
2022-11-16T12:14:30.411Z,14.89
2022-11-16T12:17:09.305Z,14.91
2022-11-16T12:20:09.148Z,14.95
2022-11-16T12:23:04.415Z,14.98
2022-11-16T12:25:39.397Z,14.98
2022-11-16T12:28:24.401Z,14.91
2022-11-16T12:31:05.527Z,14.86
2022-11-16T12:33:45.231Z,14.88
2022-11-16T12:36:25.747Z,14.90
2022-11-16T12:39:02.501Z,14.92
2022-11-16T12:41:53.748Z,14.89
2022-11-16T12:44:32.880Z,14.89
2022-11-16T12:47:08.110Z,14.94
2022-11-16T12:50:08.212Z,14.97
2022-11-16T12:52:53.581Z,14.90
2022-11-16T12:55:28.027Z,14.87
2022-11-16T12:58:08.508Z,14.88
2022-11-16T13:00:48.569Z,14.92
2022-11-16T13:03:22.454Z,14.94
2022-11-16T13:06:00.314Z,14.98
2022-11-16T13:08:43.003Z,15.04
2022-11-16T13:11:12.966Z,15.07
2022-11-16T13:13:45.723Z,15.10
2022-11-16T13:16:17.372Z,15.08
2022-11-16T13:18:45.498Z,15.03
2022-11-16T13:21:25.935Z,15.00
2022-11-16T13:24:06.608Z,14.99
2022-11-16T13:26:40.645Z,14.98
2022-11-16T13:29:19.365Z,14.97
2022-11-16T13:31:54.611Z,15.00
2022-11-16T13:34:26.170Z,15.04
2022-11-16T13:36:55.289Z,15.08
2022-11-16T13:40:01.904Z,15.05
2022-11-16T13:42:30.530Z,15.03
2022-11-16T13:45:07.877Z,15.01
2022-11-16T13:47:37.641Z,14.97
2022-11-16T13:50:08.086Z,14.95
2022-11-16T13:53:46.350Z,14.90
2022-11-16T13:55:42.159Z,14.92
2022-11-16T13:58:19.885Z,14.87
2022-11-16T14:00:58.294Z,14.90
2022-11-16T14:03:39.457Z,14.90
2022-11-16T14:06:23.560Z,14.85
2022-11-16T14:08:53.926Z,14.76
2022-11-16T14:11:31.146Z,14.69
2022-11-16T14:14:01.258Z,14.66
2022-11-16T14:16:47.313Z,14.64
2022-11-16T14:19:55.078Z,14.62
2022-11-16T14:22:38.835Z,14.62
2022-11-16T14:25:21.141Z,14.62
2022-11-16T14:27:55.307Z,14.62
2022-11-16T14:30:28.629Z,14.60
2022-11-16T14:32:58.226Z,14.52
2022-11-16T14:35:33.825Z,14.51
2022-11-16T14:38:04.254Z,14.47
2022-11-16T14:40:46.353Z,14.48
2022-11-16T14:43:21.634Z,14.45
2022-11-16T14:45:54.198Z,14.40
2022-11-16T14:48:25.745Z,14.35
2022-11-16T14:51:04.957Z,14.31
2022-11-16T14:53:35.461Z,14.29
2022-11-16T14:56:12.904Z,14.27
2022-11-16T14:58:41.081Z,14.22
2022-11-16T15:01:15.422Z,14.21
2022-11-16T15:03:53.468Z,14.16
2022-11-16T15:06:21.795Z,14.14
2022-11-16T15:08:54.137Z,14.14
2022-11-16T15:11:48.146Z,14.17
2022-11-16T15:14:22.090Z,14.17
2022-11-16T15:16:52.120Z,14.14
2022-11-16T15:19:20.280Z,14.13
2022-11-16T15:21:55.258Z,14.13
2022-11-16T15:24:32.673Z,14.08
2022-11-16T15:27:13.373Z,14.02
2022-11-16T15:29:41.100Z,13.94
2022-11-16T15:32:16.544Z,13.89
2022-11-16T15:34:47.382Z,13.82
2022-11-16T15:37:15.301Z,13.74
2022-11-16T15:39:44.146Z,13.66
2022-11-16T15:42:15.705Z,13.59
2022-11-16T15:44:44.364Z,13.56
2022-11-16T15:47:14.009Z,13.52
2022-11-16T15:49:42.842Z,13.51
2022-11-16T15:52:11.203Z,13.46
2022-11-16T15:54:52.764Z,13.39
2022-11-16T15:57:24.021Z,13.31
2022-11-16T15:59:54.896Z,13.28
2022-11-16T16:02:24.609Z,13.24
2022-11-16T16:04:52.605Z,13.18
2022-11-16T16:07:38.545Z,13.15
2022-11-16T16:10:14.155Z,13.09
2022-11-16T16:12:51.287Z,12.99
2022-11-16T16:15:23.929Z,12.96
2022-11-16T16:17:52.898Z,12.93
2022-11-16T16:20:22.939Z,12.91
2022-11-16T16:22:51.129Z,12.87
2022-11-16T16:25:30.194Z,12.83
2022-11-16T16:27:59.290Z,12.79
2022-11-16T16:30:28.801Z,12.77
2022-11-16T16:32:56.958Z,12.71
2022-11-16T16:35:26.512Z,12.67
2022-11-16T16:37:58.704Z,12.66
2022-11-16T16:40:27.273Z,12.63
2022-11-16T16:42:56.364Z,12.59
2022-11-16T16:45:35.409Z,12.55
2022-11-16T16:48:03.381Z,12.51
2022-11-16T16:50:31.076Z,12.48
2022-11-16T16:52:58.863Z,12.46
2022-11-16T16:55:26.623Z,12.42
2022-11-16T16:57:56.602Z,12.38
2022-11-16T17:00:24.882Z,12.31
2022-11-16T17:02:54.311Z,12.28
2022-11-16T17:05:22.050Z,12.24
2022-11-16T17:07:49.747Z,12.19
2022-11-16T17:10:18.280Z,12.15
2022-11-16T17:12:49.903Z,12.11
2022-11-16T17:15:19.482Z,12.08
2022-11-16T17:17:47.563Z,12.05
2022-11-16T17:20:17.207Z,11.99
2022-11-16T17:22:45.902Z,11.92
2022-11-16T17:25:14.862Z,11.88
2022-11-16T17:27:42.567Z,11.86
2022-11-16T17:30:11.631Z,11.82
2022-11-16T17:32:39.291Z,11.76
2022-11-16T17:35:07.301Z,11.71
2022-11-16T17:37:36.403Z,11.69
2022-11-16T17:40:11.462Z,11.66
2022-11-16T17:42:39.187Z,11.64
2022-11-16T17:45:08.025Z,11.64
2022-11-16T17:47:36.137Z,11.60
2022-11-16T17:50:04.268Z,11.56
2022-11-16T17:52:31.985Z,11.56
2022-11-16T17:55:01.023Z,11.55
2022-11-16T17:57:28.879Z,11.55
2022-11-16T17:59:56.681Z,11.54
2022-11-16T18:02:24.381Z,11.48
2022-11-16T18:04:52.121Z,11.47
2022-11-16T18:07:19.947Z,11.43
2022-11-16T18:09:47.776Z,11.40
2022-11-16T18:12:16.892Z,11.38
2022-11-16T18:15:00.131Z,11.36
2022-11-16T18:17:32.491Z,11.36
2022-11-16T18:20:00.219Z,11.34
2022-11-16T18:22:27.946Z,11.34
2022-11-16T18:24:55.701Z,11.34
2022-11-16T18:27:24.728Z,11.30
2022-11-16T18:29:52.595Z,11.31
2022-11-16T18:32:22.816Z,11.31
2022-11-16T18:34:50.580Z,11.28
2022-11-16T18:37:18.247Z,11.27
2022-11-16T18:39:46.061Z,11.25
2022-11-16T18:42:13.863Z,11.24
2022-11-16T18:44:42.965Z,11.20
2022-11-16T18:47:10.663Z,11.17
2022-11-16T18:49:38.406Z,11.14
2022-11-16T18:52:06.171Z,11.11
2022-11-16T18:54:33.940Z,11.12
2022-11-16T18:57:01.689Z,11.13
2022-11-16T18:59:29.370Z,11.12
2022-11-16T19:01:58.457Z,11.13
2022-11-16T19:04:27.033Z,11.10
2022-11-16T19:06:54.753Z,11.07
2022-11-16T19:09:22.603Z,11.06
2022-11-16T19:11:51.636Z,11.04
2022-11-16T19:14:19.348Z,11.00
2022-11-16T19:16:54.050Z,10.96
2022-11-16T19:19:27.744Z,10.92
2022-11-16T19:21:56.905Z,10.86
2022-11-16T19:24:24.878Z,10.90
2022-11-16T19:26:53.078Z,10.87
2022-11-16T19:29:21.654Z,10.84
2022-11-16T19:31:49.427Z,10.82
2022-11-16T19:34:17.218Z,10.79
2022-11-16T19:36:46.386Z,10.74
2022-11-16T19:39:14.165Z,10.74
2022-11-16T19:41:41.914Z,10.73
2022-11-16T19:44:11.717Z,10.73
2022-11-16T19:46:39.968Z,10.76
2022-11-16T19:49:09.238Z,10.76
2022-11-16T19:51:37.172Z,10.76
2022-11-16T19:54:06.874Z,10.83
2022-11-16T19:56:34.587Z,10.84
2022-11-16T19:59:02.640Z,10.88
2022-11-16T20:01:30.389Z,10.97
2022-11-16T20:03:59.482Z,11.02
2022-11-16T20:06:29.385Z,11.10
2022-11-16T20:09:00.670Z,11.13
2022-11-16T20:11:31.618Z,11.14
2022-11-16T20:13:59.733Z,11.19
2022-11-16T20:16:35.409Z,11.22
2022-11-16T20:19:06.378Z,11.27
2022-11-16T20:21:36.116Z,11.31
2022-11-16T20:24:07.039Z,11.32
2022-11-16T20:26:37.945Z,11.36
2022-11-16T20:29:05.656Z,11.36
2022-11-16T20:31:34.941Z,11.37
2022-11-16T20:34:05.167Z,11.40
2022-11-16T20:36:34.618Z,11.43
2022-11-16T20:39:02.543Z,11.44
2022-11-16T20:41:33.571Z,11.42
2022-11-16T20:44:03.598Z,11.46
2022-11-16T20:46:33.049Z,11.52
2022-11-16T20:49:01.829Z,11.57
2022-11-16T20:51:30.564Z,11.60
2022-11-16T20:53:58.830Z,11.65
2022-11-16T20:56:28.114Z,11.69
2022-11-16T20:58:55.906Z,11.72
2022-11-16T21:01:28.748Z,11.73
2022-11-16T21:03:56.944Z,11.76
2022-11-16T21:06:24.779Z,11.78
2022-11-16T21:08:52.507Z,11.78
2022-11-16T21:11:22.612Z,11.74
2022-11-16T21:14:07.973Z,11.74
2022-11-16T21:16:37.898Z,11.72
2022-11-16T21:19:05.740Z,11.73
2022-11-16T21:21:33.874Z,11.74
2022-11-16T21:24:01.621Z,11.76
2022-11-16T21:26:30.983Z,11.75
2022-11-16T21:28:59.717Z,11.78
2022-11-16T21:31:29.811Z,11.79
2022-11-16T21:34:00.531Z,11.80
2022-11-16T21:36:30.078Z,11.82
2022-11-16T21:38:58.461Z,11.84
2022-11-16T21:41:27.231Z,11.85
2022-11-16T21:43:55.233Z,11.83
2022-11-16T21:46:24.773Z,11.83
2022-11-16T21:48:53.767Z,11.84
2022-11-16T21:51:24.816Z,11.84
2022-11-16T21:53:52.867Z,11.83
2022-11-16T21:56:21.822Z,11.86
2022-11-16T21:58:50.390Z,11.83
2022-11-16T22:01:18.225Z,11.84
2022-11-16T22:03:46.235Z,11.85
2022-11-16T22:06:38.591Z,11.84
2022-11-16T22:09:07.886Z,11.87
2022-11-16T22:11:35.611Z,11.88
2022-11-16T22:14:03.495Z,11.86
2022-11-16T22:16:31.215Z,11.86
2022-11-16T22:18:58.914Z,11.86
2022-11-16T22:21:26.648Z,11.87
2022-11-16T22:23:54.334Z,11.88
2022-11-16T22:26:23.692Z,11.90
2022-11-16T22:28:53.203Z,11.89
2022-11-16T22:31:20.987Z,11.90
2022-11-16T22:33:52.737Z,11.89
2022-11-16T22:36:20.509Z,11.91
2022-11-16T22:38:48.206Z,11.92
2022-11-16T22:41:16.042Z,11.94
2022-11-16T22:43:45.158Z,11.93
2022-11-16T22:46:12.884Z,11.94
2022-11-16T22:48:43.487Z,11.96
2022-11-16T22:51:21.599Z,11.97
2022-11-16T22:53:59.839Z,11.98
2022-11-16T22:56:28.628Z,11.99
2022-11-16T22:58:58.545Z,12.02
2022-11-16T23:01:26.522Z,12.04
2022-11-16T23:03:54.273Z,12.04
2022-11-16T23:06:21.984Z,12.06
2022-11-16T23:08:50.264Z,12.07
2022-11-16T23:11:36.958Z,12.07
2022-11-16T23:14:25.138Z,12.06
2022-11-16T23:16:53.480Z,12.09
2022-11-16T23:19:39.961Z,12.10
2022-11-16T23:22:26.966Z,12.11
2022-11-16T23:25:12.426Z,12.13
2022-11-16T23:27:44.205Z,12.14
2022-11-16T23:30:14.074Z,12.13
2022-11-16T23:32:42.249Z,12.10
2022-11-16T23:35:10.948Z,12.06
2022-11-16T23:37:50.926Z,12.02
2022-11-16T23:40:19.345Z,12.01
2022-11-16T23:43:04.428Z,11.95
2022-11-16T23:45:33.610Z,11.91
2022-11-16T23:48:01.424Z,11.91
2022-11-16T23:50:29.313Z,11.91
2022-11-16T23:52:57.068Z,11.90
2022-11-16T23:55:24.771Z,11.90
2022-11-16T23:57:52.493Z,11.86
